createdAt,value
2022-08-03T00:02:19.905Z,99028.88
2022-08-03T00:04:47.666Z,99030.67
2022-08-03T00:07:15.739Z,99030.26
2022-08-03T00:09:43.296Z,99025.77
2022-08-03T00:12:10.652Z,99031.31
2022-08-03T00:14:37.800Z,99041.13
2022-08-03T00:17:05.019Z,99026.45
2022-08-03T00:19:32.267Z,99006.80
2022-08-03T00:21:59.456Z,99012.16
2022-08-03T00:24:26.715Z,99024.51
2022-08-03T00:26:54.266Z,99028.81
2022-08-03T00:29:21.516Z,99026.11
2022-08-03T00:31:52.510Z,99024.41
2022-08-03T00:34:57.410Z,99024.40
2022-08-03T00:37:13.791Z,99025.79
2022-08-03T00:39:41.248Z,99034.25
2022-08-03T00:42:08.398Z,99020.10
2022-08-03T00:44:45.788Z,99015.38
2022-08-03T00:47:13.553Z,99027.63
2022-08-03T00:49:42.023Z,99010.59
2022-08-03T00:52:10.922Z,99008.27
2022-08-03T00:54:38.935Z,99005.50
2022-08-03T00:57:06.755Z,99017.48
2022-08-03T00:59:34.930Z,99018.06
2022-08-03T01:02:02.592Z,99028.58
2022-08-03T01:04:29.745Z,99018.94
2022-08-03T01:07:22.844Z,99018.92
2022-08-03T01:10:02.394Z,99020.94
2022-08-03T01:12:36.488Z,99022.90
2022-08-03T01:15:30.050Z,99041.84
2022-08-03T01:18:10.700Z,99007.92
2022-08-03T01:20:43.802Z,99028.79
2022-08-03T01:23:48.916Z,99035.73
2022-08-03T01:26:49.245Z,99029.16
2022-08-03T01:29:50.628Z,99032.83
2022-08-03T01:32:59.770Z,99041.60
2022-08-03T01:35:14.946Z,99037.21
2022-08-03T01:37:57.100Z,99034.80
2022-08-03T01:40:27.582Z,99034.99
2022-08-03T01:42:57.951Z,99030.27
2022-08-03T01:45:26.373Z,99029.23
2022-08-03T01:47:55.580Z,99042.95
2022-08-03T01:50:29.887Z,99033.70
2022-08-03T01:52:58.880Z,99041.70
2022-08-03T01:55:29.984Z,99032.35
2022-08-03T01:58:06.087Z,99029.54
2022-08-03T02:00:37.508Z,99027.08
2022-08-03T02:03:07.148Z,99033.15
2022-08-03T02:05:35.294Z,99031.35
2022-08-03T02:08:05.251Z,99019.84
2022-08-03T02:10:35.769Z,99024.44
2022-08-03T02:13:06.631Z,99022.95
2022-08-03T02:15:36.262Z,99032.18
2022-08-03T02:18:06.405Z,99032.59
2022-08-03T02:20:36.706Z,99025.13
2022-08-03T02:23:04.265Z,99031.50
2022-08-03T02:25:33.860Z,99030.05
2022-08-03T02:28:15.768Z,99028.71
2022-08-03T02:30:45.744Z,99028.25
2022-08-03T02:33:25.375Z,99020.74
2022-08-03T02:35:54.163Z,99024.67
2022-08-03T02:38:26.523Z,99022.76
2022-08-03T02:40:58.116Z,99024.52
2022-08-03T02:43:25.698Z,99026.17
2022-08-03T02:45:54.793Z,99027.65
2022-08-03T02:48:26.972Z,99036.89
2022-08-03T02:50:57.328Z,99035.95
2022-08-03T02:53:29.657Z,99036.77
2022-08-03T02:55:58.345Z,99029.63
2022-08-03T02:58:26.623Z,99029.52
2022-08-03T03:00:54.459Z,99035.10
2022-08-03T03:03:22.967Z,99044.65
2022-08-03T03:05:57.488Z,99038.27
2022-08-03T03:08:28.630Z,99037.14
2022-08-03T03:11:01.931Z,99032.61
2022-08-03T03:13:31.441Z,99028.89
2022-08-03T03:16:01.960Z,99030.10
2022-08-03T03:18:31.305Z,99028.00
2022-08-03T03:21:00.910Z,99034.63
2022-08-03T03:23:29.457Z,99035.46
2022-08-03T03:25:58.714Z,99035.75
2022-08-03T03:28:26.930Z,99038.50
2022-08-03T03:30:54.277Z,99038.09
2022-08-03T03:33:22.896Z,99043.84
2022-08-03T03:35:51.959Z,99045.94
2022-08-03T03:38:20.213Z,99040.83
2022-08-03T03:40:48.002Z,99038.91
2022-08-03T03:43:15.453Z,99041.95
2022-08-03T03:45:43.422Z,99042.15
2022-08-03T03:48:10.982Z,99050.69
2022-08-03T03:50:41.204Z,99055.58
2022-08-03T03:53:12.689Z,99046.09
2022-08-03T03:56:02.432Z,99049.71
2022-08-03T03:58:28.666Z,99054.88
2022-08-03T04:00:55.999Z,99057.73
2022-08-03T04:03:23.575Z,99070.41
2022-08-03T04:06:09.463Z,99074.25
2022-08-03T04:08:55.251Z,99075.80
2022-08-03T04:11:43.802Z,99069.39
2022-08-03T04:14:21.295Z,99075.77
2022-08-03T04:17:02.884Z,99072.04
2022-08-03T04:19:40.892Z,99074.30
2022-08-03T04:22:12.137Z,99080.05
2022-08-03T04:24:43.493Z,99075.92
2022-08-03T04:27:14.552Z,99083.48
2022-08-03T04:29:48.798Z,99079.39
2022-08-03T04:32:17.909Z,99077.95
2022-08-03T04:34:45.537Z,99088.08
2022-08-03T04:37:18.191Z,99092.24
2022-08-03T04:39:49.520Z,99081.98
2022-08-03T04:42:20.133Z,99076.02
2022-08-03T04:44:49.656Z,99085.16
2022-08-03T04:47:17.218Z,99079.55
2022-08-03T04:49:44.783Z,99088.82
2022-08-03T04:52:12.131Z,99087.37
2022-08-03T04:54:44.383Z,99090.30
2022-08-03T04:57:22.085Z,99094.88
2022-08-03T05:00:02.485Z,99090.70
2022-08-03T05:02:32.207Z,99080.30
2022-08-03T05:04:59.829Z,99074.71
2022-08-03T05:07:35.559Z,99086.60
2022-08-03T05:10:15.009Z,99082.58
2022-08-03T05:12:45.315Z,99086.03
2022-08-03T05:15:13.327Z,99096.73
2022-08-03T05:17:40.708Z,99089.17
2022-08-03T05:20:09.042Z,99092.63
2022-08-03T05:22:36.300Z,99081.33
2022-08-03T05:25:04.423Z,99083.39
2022-08-03T05:27:31.516Z,99093.94
2022-08-03T05:30:27.346Z,99088.14
2022-08-03T05:32:46.400Z,99097.56
2022-08-03T05:36:02.098Z,99105.73
2022-08-03T05:38:02.712Z,99107.20
2022-08-03T05:40:31.196Z,99111.52
2022-08-03T05:42:58.855Z,99107.86
2022-08-03T05:45:28.429Z,99103.44
2022-08-03T05:47:56.273Z,99103.17
2022-08-03T05:50:23.662Z,99100.91
2022-08-03T05:52:50.880Z,99099.76
2022-08-03T05:55:19.316Z,99097.30
2022-08-03T05:57:49.298Z,99101.30
2022-08-03T06:00:17.354Z,99109.33
2022-08-03T06:02:44.859Z,99099.71
2022-08-03T06:05:12.217Z,99101.23
2022-08-03T06:07:39.467Z,99111.20
2022-08-03T06:10:35.524Z,99102.29
2022-08-03T06:12:54.672Z,99104.01
2022-08-03T06:15:22.260Z,99103.43
2022-08-03T06:17:51.519Z,99120.50
2022-08-03T06:20:21.005Z,99120.77
2022-08-03T06:22:51.393Z,99120.85
2022-08-03T06:25:27.817Z,99113.55
2022-08-03T06:27:55.073Z,99119.23
2022-08-03T06:30:22.422Z,99112.45
2022-08-03T06:32:51.849Z,99118.19
2022-08-03T06:35:20.436Z,99116.98
2022-08-03T06:37:49.709Z,99109.25
2022-08-03T06:40:30.066Z,99117.61
2022-08-03T06:43:02.874Z,99109.45
2022-08-03T06:45:31.591Z,99109.30
2022-08-03T06:48:05.080Z,99116.83
2022-08-03T06:50:33.354Z,99109.69
2022-08-03T06:53:02.474Z,99112.61
2022-08-03T06:55:30.067Z,99099.66
2022-08-03T06:57:59.813Z,99121.15
2022-08-03T07:00:31.232Z,99104.17
2022-08-03T07:02:58.711Z,99104.53
2022-08-03T07:05:26.549Z,99111.13
2022-08-03T07:08:02.074Z,99114.39
2022-08-03T07:10:29.554Z,99125.20
2022-08-03T07:12:57.036Z,99126.58
2022-08-03T07:15:54.989Z,99118.32
2022-08-03T07:18:12.405Z,99115.70
2022-08-03T07:20:39.653Z,99112.54
2022-08-03T07:23:06.804Z,99123.48
2022-08-03T07:25:34.159Z,99120.25
2022-08-03T07:28:01.409Z,99124.06
2022-08-03T07:30:29.017Z,99122.27
2022-08-03T07:32:56.222Z,99128.05
2022-08-03T07:35:25.082Z,99139.22
2022-08-03T07:37:55.040Z,99137.40
2022-08-03T07:40:22.819Z,99135.10
2022-08-03T07:42:53.326Z,99136.06
2022-08-03T07:45:23.587Z,99142.06
2022-08-03T07:47:53.228Z,99152.28
2022-08-03T07:50:21.331Z,99156.38
2022-08-03T07:52:50.211Z,99134.92
2022-08-03T07:55:24.046Z,99133.41
2022-08-03T07:58:00.487Z,99150.16
2022-08-03T08:00:27.755Z,99149.33
2022-08-03T08:02:54.991Z,99153.91
2022-08-03T08:05:22.248Z,99150.02
2022-08-03T08:07:51.075Z,99157.72
2022-08-03T08:10:19.566Z,99169.28
2022-08-03T08:12:47.274Z,99169.98
2022-08-03T08:15:14.935Z,99173.36
2022-08-03T08:17:47.309Z,99184.16
2022-08-03T08:20:28.437Z,99175.51
2022-08-03T08:23:09.623Z,99190.05
2022-08-03T08:25:53.096Z,99195.16
2022-08-03T08:28:32.608Z,99187.71
2022-08-03T08:31:01.861Z,99193.36
2022-08-03T08:33:42.486Z,99189.98
2022-08-03T08:36:15.778Z,99200.89
2022-08-03T08:38:45.131Z,99183.23
2022-08-03T08:41:14.414Z,99194.52
2022-08-03T08:43:42.414Z,99193.24
2022-08-03T08:46:23.589Z,99196.84
2022-08-03T08:48:52.832Z,99198.67
2022-08-03T08:51:22.756Z,99202.11
2022-08-03T08:53:53.134Z,99188.57
2022-08-03T08:56:23.405Z,99196.94
2022-08-03T08:59:00.779Z,99193.33
2022-08-03T09:01:28.591Z,99201.77
2022-08-03T09:03:56.022Z,99204.17
2022-08-03T09:06:24.538Z,99198.01
2022-08-03T09:08:51.782Z,99200.27
2022-08-03T09:12:00.356Z,99204.71
2022-08-03T09:14:33.603Z,99194.47
2022-08-03T09:17:02.127Z,99193.92
2022-08-03T09:19:31.167Z,99182.88
2022-08-03T09:22:15.225Z,99179.59
2022-08-03T09:25:23.503Z,99196.70
2022-08-03T09:27:48.496Z,99197.23
2022-08-03T09:30:34.508Z,99210.23
2022-08-03T09:33:08.393Z,99192.02
2022-08-03T09:35:57.636Z,99207.19
2022-08-03T09:38:29.012Z,99208.97
2022-08-03T09:41:00.493Z,99210.61
2022-08-03T09:43:28.611Z,99218.21
2022-08-03T09:46:07.769Z,99223.49
2022-08-03T09:48:37.067Z,99214.83
2022-08-03T09:51:13.100Z,99209.76
2022-08-03T09:53:59.713Z,99210.44
2022-08-03T09:56:45.507Z,99206.30
2022-08-03T09:59:14.620Z,99212.69
2022-08-03T10:01:42.594Z,99216.69
2022-08-03T10:06:15.683Z,99204.05
2022-08-03T10:08:43.265Z,99205.36
2022-08-03T10:11:10.496Z,99208.79
2022-08-03T10:13:38.773Z,99200.95
2022-08-03T10:16:23.180Z,99202.23
2022-08-03T10:18:52.380Z,99208.83
2022-08-03T10:21:20.599Z,99206.17
2022-08-03T10:23:48.886Z,99211.87
2022-08-03T10:26:22.801Z,99211.03
2022-08-03T10:28:53.549Z,99209.20
2022-08-03T10:31:24.038Z,99212.80
2022-08-03T10:33:53.332Z,99207.92
2022-08-03T10:36:24.494Z,99210.70
2022-08-03T10:38:53.858Z,99203.27
2022-08-03T10:41:23.644Z,99192.70
2022-08-03T10:43:56.920Z,99202.34
2022-08-03T10:46:26.521Z,99195.23
2022-08-03T10:48:54.284Z,99200.52
2022-08-03T10:51:23.066Z,99193.40
2022-08-03T10:53:54.676Z,99194.50
2022-08-03T10:56:54.591Z,99190.79
2022-08-03T10:59:46.972Z,99192.45
2022-08-03T11:02:18.163Z,99183.61
2022-08-03T11:04:45.568Z,99190.34
2022-08-03T11:07:23.471Z,99187.38
2022-08-03T11:09:52.967Z,99186.96
2022-08-03T11:12:32.297Z,99187.75
2022-08-03T11:15:02.836Z,99184.28
2022-08-03T11:17:30.275Z,99186.85
2022-08-03T11:19:58.653Z,99172.02
2022-08-03T11:22:47.346Z,99189.22
2022-08-03T11:25:54.345Z,99175.36
2022-08-03T11:28:27.197Z,99174.98
2022-08-03T11:30:54.552Z,99176.65
2022-08-03T11:33:32.041Z,99175.78
2022-08-03T11:36:02.091Z,99159.95
2022-08-03T11:38:29.412Z,99168.05
2022-08-03T11:40:56.665Z,99169.86
2022-08-03T11:43:37.701Z,99185.83
2022-08-03T11:46:13.793Z,99171.56
2022-08-03T11:49:09.300Z,99173.54
2022-08-03T11:51:38.134Z,99178.16
2022-08-03T11:54:06.805Z,99179.05
2022-08-03T11:56:54.118Z,99177.38
2022-08-03T11:59:33.060Z,99179.42
2022-08-03T12:02:13.545Z,99185.65
2022-08-03T12:05:10.344Z,99174.33
2022-08-03T12:08:03.665Z,99161.90
2022-08-03T12:10:34.548Z,99163.96
2022-08-03T12:13:03.089Z,99159.36
2022-08-03T12:15:34.130Z,99154.19
2022-08-03T12:18:12.590Z,99162.58
2022-08-03T12:20:40.350Z,99160.78
2022-08-03T12:23:10.055Z,99166.33
2022-08-03T12:25:40.029Z,99161.66
2022-08-03T12:28:37.668Z,99171.30
2022-08-03T12:31:13.385Z,99163.61
2022-08-03T12:34:05.420Z,99181.73
2022-08-03T12:36:35.031Z,99169.39
2022-08-03T12:39:09.353Z,99174.08
2022-08-03T12:41:38.850Z,99164.57
2022-08-03T12:44:07.647Z,99173.16
2022-08-03T12:46:34.902Z,99163.02
2022-08-03T12:49:15.614Z,99158.55
2022-08-03T12:51:42.911Z,99163.31
2022-08-03T12:54:34.847Z,99150.55
2022-08-03T12:57:02.094Z,99156.75
2022-08-03T12:59:40.565Z,99164.05
2022-08-03T13:02:18.879Z,99149.05
2022-08-03T13:04:48.160Z,99148.61
2022-08-03T13:07:16.536Z,99143.95
2022-08-03T13:09:49.850Z,99140.80
2022-08-03T13:12:20.913Z,99145.70
2022-08-03T13:14:55.306Z,99146.86
2022-08-03T13:17:23.120Z,99143.70
2022-08-03T13:19:50.779Z,99147.77
2022-08-03T13:22:20.182Z,99157.13
2022-08-03T13:24:49.610Z,99167.90
2022-08-03T13:28:01.092Z,99172.47
2022-08-03T13:30:05.287Z,99165.06
2022-08-03T13:32:34.070Z,99151.20
2022-08-03T13:35:03.004Z,99151.14
2022-08-03T13:37:32.605Z,99155.18
2022-08-03T13:40:03.059Z,99163.27
2022-08-03T13:42:34.406Z,99182.55
2022-08-03T13:45:02.740Z,99195.91
2022-08-03T13:47:30.084Z,99193.64
2022-08-03T13:49:59.780Z,99200.40
2022-08-03T13:52:34.653Z,99198.02
2022-08-03T13:55:05.459Z,99207.11
2022-08-03T13:58:11.821Z,99211.19
2022-08-03T14:00:27.164Z,99200.45
2022-08-03T14:03:06.766Z,99222.21
2022-08-03T14:05:38.599Z,99229.23
2022-08-03T14:08:07.220Z,99233.20
2022-08-03T14:10:37.176Z,99222.98
2022-08-03T14:13:05.722Z,99213.60
2022-08-03T14:15:37.424Z,99216.98
2022-08-03T14:18:12.685Z,99226.35
2022-08-03T14:20:50.059Z,99225.42
2022-08-03T14:23:21.885Z,99233.79
2022-08-03T14:25:51.617Z,99242.33
2022-08-03T14:28:21.454Z,99236.41
2022-08-03T14:30:48.878Z,99233.92
2022-08-03T14:33:16.231Z,99231.42
2022-08-03T14:35:43.817Z,99226.08
2022-08-03T14:38:11.278Z,99228.73
2022-08-03T14:40:38.469Z,99224.63
2022-08-03T14:43:05.644Z,99227.18
2022-08-03T14:45:33.030Z,99223.45
2022-08-03T14:50:30.252Z,99225.77
2022-08-03T14:50:51.391Z,99226.98
2022-08-03T14:53:19.742Z,99229.06
2022-08-03T14:55:51.520Z,99228.24
2022-08-03T14:58:25.406Z,99230.20
2022-08-03T15:00:54.274Z,99222.80
2022-08-03T15:03:25.800Z,99223.90
2022-08-03T15:05:53.547Z,99227.33
2022-08-03T15:08:22.332Z,99228.55
2022-08-03T15:10:50.768Z,99234.30
2022-08-03T15:13:18.593Z,99233.07
2022-08-03T15:15:46.167Z,99229.91
2022-08-03T15:18:13.490Z,99227.16
2022-08-03T15:20:46.198Z,99230.10
2022-08-03T15:23:16.168Z,99231.27
2022-08-03T15:26:32.315Z,99232.91
2022-08-03T15:28:32.618Z,99234.17
2022-08-03T15:31:00.684Z,99233.51
2022-08-03T15:33:29.467Z,99234.73
2022-08-03T15:35:57.639Z,99231.56
2022-08-03T15:38:26.185Z,99233.80
2022-08-03T15:40:55.183Z,99231.73
2022-08-03T15:43:23.912Z,99232.44
2022-08-03T15:46:26.471Z,99237.48
2022-08-03T15:48:40.522Z,99236.63
2022-08-03T15:51:09.049Z,99239.23
2022-08-03T15:53:36.769Z,99239.29
2022-08-03T15:56:11.221Z,99233.40
2022-08-03T15:59:09.726Z,99235.80
2022-08-03T16:01:28.112Z,99234.48
2022-08-03T16:03:55.368Z,99238.58
2022-08-03T16:06:35.289Z,99237.52
2022-08-03T16:09:24.306Z,99236.22
2022-08-03T16:11:56.038Z,99232.86
2022-08-03T16:14:32.385Z,99228.66
2022-08-03T16:17:03.855Z,99225.95
2022-08-03T16:19:31.224Z,99221.37
2022-08-03T16:21:58.477Z,99221.30
2022-08-03T16:24:27.723Z,99215.85
2022-08-03T16:26:56.146Z,99217.17
2022-08-03T16:29:23.917Z,99216.02
2022-08-03T16:31:52.694Z,99214.27
2022-08-03T16:34:20.704Z,99215.71
2022-08-03T16:36:48.017Z,99217.09
2022-08-03T16:39:15.605Z,99213.55
2022-08-03T16:41:54.102Z,99218.11
2022-08-03T16:44:31.419Z,99220.90
2022-08-03T16:46:59.789Z,99224.16
2022-08-03T16:49:55.126Z,99230.20
2022-08-03T16:52:16.691Z,99240.89
2022-08-03T16:54:52.735Z,99247.98
2022-08-03T16:57:31.824Z,99257.92
2022-08-03T17:00:12.052Z,99263.33
2022-08-03T17:02:48.078Z,99269.58
2022-08-03T17:05:15.750Z,99275.40
2022-08-03T17:07:47.006Z,99282.98
2022-08-03T17:10:21.932Z,99293.05
2022-08-03T17:12:54.853Z,99293.05
2022-08-03T17:15:38.322Z,99295.95
2022-08-03T17:18:18.398Z,99299.74
2022-08-03T17:20:51.048Z,99299.02
2022-08-03T17:23:34.749Z,99294.91
2022-08-03T17:26:10.573Z,99293.02
2022-08-03T17:28:52.022Z,99295.10
2022-08-03T17:31:31.234Z,99289.23
2022-08-03T17:34:01.753Z,99289.97
2022-08-03T17:36:53.982Z,99294.95
2022-08-03T17:39:27.045Z,99298.31
2022-08-03T17:42:29.015Z,99300.69
2022-08-03T17:44:54.619Z,99304.35
2022-08-03T17:47:24.023Z,99305.10
2022-08-03T17:49:57.111Z,99305.71
2022-08-03T17:52:30.609Z,99308.73
2022-08-03T17:55:56.878Z,99310.09
2022-08-03T17:58:15.082Z,99313.86
2022-08-03T18:01:04.971Z,99317.45
2022-08-03T18:03:59.325Z,99314.44
2022-08-03T18:06:31.840Z,99316.58
2022-08-03T18:10:06.386Z,99306.52
2022-08-03T18:11:54.184Z,99309.96
2022-08-03T18:14:35.923Z,99307.18
2022-08-03T18:17:10.545Z,99310.59
2022-08-03T18:20:01.991Z,99309.13
2022-08-03T18:22:30.595Z,99300.96
2022-08-03T18:25:00.620Z,99300.23
2022-08-03T18:27:42.488Z,99296.59
2022-08-03T18:30:14.620Z,99298.32
2022-08-03T18:33:00.713Z,99294.38
2022-08-03T18:35:53.690Z,99296.52
2022-08-03T18:38:18.928Z,99297.84
2022-08-03T18:40:48.438Z,99294.87
2022-08-03T18:43:17.758Z,99288.39
2022-08-03T18:45:55.754Z,99289.54
2022-08-03T18:48:28.881Z,99290.41
2022-08-03T18:50:59.177Z,99290.66
2022-08-03T18:54:01.917Z,99296.39
2022-08-03T18:56:45.376Z,99303.64
2022-08-03T18:59:38.259Z,99309.29
2022-08-03T19:02:23.208Z,99302.77
2022-08-03T19:04:54.545Z,99294.25
2022-08-03T19:07:27.288Z,99293.34
2022-08-03T19:09:59.295Z,99292.34
2022-08-03T19:12:48.389Z,99304.30
2022-08-03T19:15:16.012Z,99307.98
2022-08-03T19:17:52.958Z,99305.17
2022-08-03T19:20:26.440Z,99307.80
2022-08-03T19:22:57.019Z,99310.75
2022-08-03T19:25:34.954Z,99304.35
2022-08-03T19:28:06.181Z,99304.13
2022-08-03T19:30:40.130Z,99307.14
2022-08-03T19:33:17.056Z,99311.36
2022-08-03T19:35:55.436Z,99311.80
2022-08-03T19:38:28.203Z,99312.98
2022-08-03T19:41:03.864Z,99310.48
2022-08-03T19:43:49.346Z,99312.29
2022-08-03T19:46:30.168Z,99303.92
2022-08-03T19:49:19.621Z,99299.23
2022-08-03T19:52:02.453Z,99296.93
2022-08-03T19:54:53.305Z,99296.13
2022-08-03T19:57:25.062Z,99304.12
2022-08-03T19:59:54.099Z,99308.92
2022-08-03T20:02:27.087Z,99311.70
2022-08-03T20:04:59.787Z,99313.55
2022-08-03T20:07:30.474Z,99317.04
2022-08-03T20:10:01.283Z,99327.59
2022-08-03T20:12:33.097Z,99317.60
2022-08-03T20:15:04.706Z,99320.77
2022-08-03T20:17:56.178Z,99327.19
2022-08-03T20:20:23.537Z,99326.77
2022-08-03T20:22:57.719Z,99324.80
2022-08-03T20:25:38.335Z,99328.05
2022-08-03T20:28:15.294Z,99331.11
2022-08-03T20:30:47.413Z,99331.30
2022-08-03T20:33:19.011Z,99333.64
2022-08-03T20:35:49.657Z,99329.40
2022-08-03T20:38:20.274Z,99331.95
2022-08-03T20:40:54.782Z,99330.70
2022-08-03T20:43:22.546Z,99326.70
2022-08-03T20:46:00.734Z,99325.77
2022-08-03T20:48:37.572Z,99330.79
2022-08-03T20:51:15.713Z,99333.15
2022-08-03T20:53:57.032Z,99333.78
2022-08-03T20:56:33.732Z,99324.72
2022-08-03T20:59:06.111Z,99332.05
2022-08-03T21:01:36.406Z,99328.58
2022-08-03T21:04:06.737Z,99323.21
2022-08-03T21:06:45.659Z,99321.49
2022-08-03T21:09:24.872Z,99319.19
2022-08-03T21:12:03.525Z,99324.89
2022-08-03T21:14:51.971Z,99326.98
2022-08-03T21:17:39.170Z,99325.88
2022-08-03T21:20:10.529Z,99337.58
2022-08-03T21:22:39.931Z,99341.18
2022-08-03T21:25:09.513Z,99337.42
2022-08-03T21:27:37.502Z,99343.66
2022-08-03T21:30:08.437Z,99337.52
2022-08-03T21:32:36.516Z,99337.06
2022-08-03T21:35:04.468Z,99335.36
2022-08-03T21:37:31.716Z,99338.90
2022-08-03T21:39:59.272Z,99330.88
2022-08-03T21:42:26.835Z,99332.05
2022-08-03T21:44:54.539Z,99332.94
2022-08-03T21:47:23.947Z,99328.64
2022-08-03T21:50:08.719Z,99327.43
2022-08-03T21:52:42.819Z,99320.95
2022-08-03T21:55:18.178Z,99321.44
2022-08-03T21:57:53.086Z,99319.84
2022-08-03T22:00:23.274Z,99324.85
2022-08-03T22:02:57.458Z,99334.83
2022-08-03T22:05:42.608Z,99329.60
2022-08-03T22:08:13.915Z,99329.07
2022-08-03T22:10:43.970Z,99330.77
2022-08-03T22:13:13.170Z,99327.81
2022-08-03T22:15:41.394Z,99322.82
2022-08-03T22:18:08.727Z,99322.27
2022-08-03T22:20:36.544Z,99331.78
2022-08-03T22:23:06.288Z,99327.82
2022-08-03T22:25:39.764Z,99320.58
2022-08-03T22:28:11.692Z,99325.00
2022-08-03T22:30:40.480Z,99324.19
2022-08-03T22:33:11.479Z,99323.05
2022-08-03T22:35:47.832Z,99327.06
2022-08-03T22:38:17.900Z,99331.86
2022-08-03T22:40:48.671Z,99329.27
2022-08-03T22:43:16.534Z,99327.17
2022-08-03T22:46:10.171Z,99325.27
2022-08-03T22:48:40.982Z,99320.27
2022-08-03T22:51:09.586Z,99321.75
2022-08-03T22:53:37.167Z,99322.61
2022-08-03T22:56:05.012Z,99310.38
2022-08-03T22:58:32.177Z,99304.10
2022-08-03T23:01:06.172Z,99303.14
2022-08-03T23:03:59.853Z,99305.70
2022-08-03T23:06:26.676Z,99306.31
2022-08-03T23:08:54.619Z,99310.34
2022-08-03T23:11:24.261Z,99304.89
2022-08-03T23:13:57.154Z,99303.64
2022-08-03T23:16:29.046Z,99315.73
2022-08-03T23:18:59.796Z,99315.20
2022-08-03T23:22:00.385Z,99315.35
2022-08-03T23:24:33.055Z,99315.69
2022-08-03T23:27:03.201Z,99316.30
2022-08-03T23:29:34.010Z,99320.73
2022-08-03T23:32:02.246Z,99315.32
2022-08-03T23:34:51.760Z,99324.73
2022-08-03T23:37:20.836Z,99322.63
2022-08-03T23:39:49.129Z,99321.56
2022-08-03T23:42:21.220Z,99321.52
2022-08-03T23:44:54.285Z,99324.45
2022-08-03T23:47:21.602Z,99322.71
2022-08-03T23:49:50.068Z,99326.62
2022-08-03T23:52:45.741Z,99324.83
2022-08-03T23:55:43.504Z,99323.17
2022-08-03T23:58:49.863Z,99318.19
